sensor_id;sensor_type;location;lat;lon;timestamp;temperature;humidity
12025;DHT22;6073;53.230;10.444;2024-02-21T00:01:25;8.30;99.90
12025;DHT22;6073;53.230;10.444;2024-02-21T00:03:50;8.30;99.90
12025;DHT22;6073;53.230;10.444;2024-02-21T00:06:16;8.30;99.90
12025;DHT22;6073;53.230;10.444;2024-02-21T00:08:41;8.30;99.90
12025;DHT22;6073;53.230;10.444;2024-02-21T00:11:07;8.40;99.90
12025;DHT22;6073;53.230;10.444;2024-02-21T00:13:32;8.40;99.90
12025;DHT22;6073;53.230;10.444;2024-02-21T00:16:00;8.40;99.90
12025;DHT22;6073;53.230;10.444;2024-02-21T00:18:26;8.40;99.90
12025;DHT22;6073;53.230;10.444;2024-02-21T00:20:51;8.40;99.90
12025;DHT22;6073;53.230;10.444;2024-02-21T00:23:17;8.40;99.90
12025;DHT22;6073;53.230;10.444;2024-02-21T00:25:43;8.40;99.90
12025;DHT22;6073;53.230;10.444;2024-02-21T00:28:08;8.40;99.90
12025;DHT22;6073;53.230;10.444;2024-02-21T00:30:34;8.40;99.90
12025;DHT22;6073;53.230;10.444;2024-02-21T00:32:59;8.40;99.90
12025;DHT22;6073;53.230;10.444;2024-02-21T00:35:25;8.40;99.90
12025;DHT22;6073;53.230;10.444;2024-02-21T00:37:51;8.40;99.90
12025;DHT22;6073;53.230;10.444;2024-02-21T00:40:17;8.50;99.90
12025;DHT22;6073;53.230;10.444;2024-02-21T00:42:45;8.50;99.90
12025;DHT22;6073;53.230;10.444;2024-02-21T00:45:11;8.50;99.90
12025;DHT22;6073;53.230;10.444;2024-02-21T00:47:37;8.40;99.90
12025;DHT22;6073;53.230;10.444;2024-02-21T00:50:02;8.50;99.90
12025;DHT22;6073;53.230;10.444;2024-02-21T00:52:28;8.50;99.90
12025;DHT22;6073;53.230;10.444;2024-02-21T00:54:53;8.40;99.90
12025;DHT22;6073;53.230;10.444;2024-02-21T00:57:19;8.40;99.90
12025;DHT22;6073;53.230;10.444;2024-02-21T00:59:44;8.40;99.90
12025;DHT22;6073;53.230;10.444;2024-02-21T01:02:10;8.50;99.90
12025;DHT22;6073;53.230;10.444;2024-02-21T01:04:35;8.40;99.90
12025;DHT22;6073;53.230;10.444;2024-02-21T01:07:01;8.40;99.90
12025;DHT22;6073;53.230;10.444;2024-02-21T01:09:29;8.50;99.90
12025;DHT22;6073;53.230;10.444;2024-02-21T01:11:55;8.50;99.90
12025;DHT22;6073;53.230;10.444;2024-02-21T01:14:21;8.50;99.90
12025;DHT22;6073;53.230;10.444;2024-02-21T01:16:46;8.50;99.90
12025;DHT22;6073;53.230;10.444;2024-02-21T01:19:12;8.50;99.90
12025;DHT22;6073;53.230;10.444;2024-02-21T01:21:37;8.50;99.90
12025;DHT22;6073;53.230;10.444;2024-02-21T01:24:03;8.40;99.90
12025;DHT22;6073;53.230;10.444;2024-02-21T01:26:28;8.50;99.90
12025;DHT22;6073;53.230;10.444;2024-02-21T01:28:54;8.50;99.90
12025;DHT22;6073;53.230;10.444;2024-02-21T01:31:22;8.50;99.90
12025;DHT22;6073;53.230;10.444;2024-02-21T01:33:48;8.50;99.90
12025;DHT22;6073;53.230;10.444;2024-02-21T01:36:13;8.50;99.90
12025;DHT22;6073;53.230;10.444;2024-02-21T01:38:39;8.50;99.90
12025;DHT22;6073;53.230;10.444;2024-02-21T01:41:05;8.50;99.90
12025;DHT22;6073;53.230;10.444;2024-02-21T01:43:30;8.50;99.90
12025;DHT22;6073;53.230;10.444;2024-02-21T01:45:56;8.50;99.90
12025;DHT22;6073;53.230;10.444;2024-02-21T01:48:23;8.50;99.90
12025;DHT22;6073;53.230;10.444;2024-02-21T01:50:49;8.50;99.90
12025;DHT22;6073;53.230;10.444;2024-02-21T01:53:19;8.50;99.90
12025;DHT22;6073;53.230;10.444;2024-02-21T01:55:46;8.50;99.90
12025;DHT22;6073;53.230;10.444;2024-02-21T01:58:16;8.50;99.90
12025;DHT22;6073;53.230;10.444;2024-02-21T02:00:43;8.60;99.90
12025;DHT22;6073;53.230;10.444;2024-02-21T02:03:12;8.60;99.90
12025;DHT22;6073;53.230;10.444;2024-02-21T02:05:48;8.60;99.90
12025;DHT22;6073;53.230;10.444;2024-02-21T02:08:19;8.60;99.90
12025;DHT22;6073;53.230;10.444;2024-02-21T02:10:45;8.60;99.90
12025;DHT22;6073;53.230;10.444;2024-02-21T02:13:11;8.60;99.90
12025;DHT22;6073;53.230;10.444;2024-02-21T02:15:47;8.60;99.90
12025;DHT22;6073;53.230;10.444;2024-02-21T02:18:14;8.60;99.90
12025;DHT22;6073;53.230;10.444;2024-02-21T02:20:40;8.60;99.90
12025;DHT22;6073;53.230;10.444;2024-02-21T02:23:09;8.60;99.90
12025;DHT22;6073;53.230;10.444;2024-02-21T02:25:39;8.70;99.90
12025;DHT22;6073;53.230;10.444;2024-02-21T02:28:06;8.60;99.90
12025;DHT22;6073;53.230;10.444;2024-02-21T02:30:32;8.60;99.90
12025;DHT22;6073;53.230;10.444;2024-02-21T02:32:59;8.60;99.90
12025;DHT22;6073;53.230;10.444;2024-02-21T02:35:24;8.60;99.90
12025;DHT22;6073;53.230;10.444;2024-02-21T02:37:50;8.60;99.90
12025;DHT22;6073;53.230;10.444;2024-02-21T02:40:16;8.60;99.90
12025;DHT22;6073;53.230;10.444;2024-02-21T02:42:42;8.60;99.90
12025;DHT22;6073;53.230;10.444;2024-02-21T02:45:07;8.50;99.90
12025;DHT22;6073;53.230;10.444;2024-02-21T02:47:33;8.50;99.90
12025;DHT22;6073;53.230;10.444;2024-02-21T02:50:00;8.60;99.90
12025;DHT22;6073;53.230;10.444;2024-02-21T02:52:25;8.70;99.90
12025;DHT22;6073;53.230;10.444;2024-02-21T02:54:51;8.60;99.90
12025;DHT22;6073;53.230;10.444;2024-02-21T02:57:18;8.60;99.90
12025;DHT22;6073;53.230;10.444;2024-02-21T02:59:52;8.50;99.90
12025;DHT22;6073;53.230;10.444;2024-02-21T03:02:18;8.60;99.90
12025;DHT22;6073;53.230;10.444;2024-02-21T03:04:44;8.50;99.90
12025;DHT22;6073;53.230;10.444;2024-02-21T03:07:09;8.50;99.90
12025;DHT22;6073;53.230;10.444;2024-02-21T03:09:37;8.60;99.90
12025;DHT22;6073;53.230;10.444;2024-02-21T03:12:03;8.60;99.90
12025;DHT22;6073;53.230;10.444;2024-02-21T03:14:29;8.60;99.90
12025;DHT22;6073;53.230;10.444;2024-02-21T03:16:55;8.60;99.90
12025;DHT22;6073;53.230;10.444;2024-02-21T03:19:21;8.60;99.90
12025;DHT22;6073;53.230;10.444;2024-02-21T03:21:46;8.50;99.90
12025;DHT22;6073;53.230;10.444;2024-02-21T03:24:12;8.60;99.90
12025;DHT22;6073;53.230;10.444;2024-02-21T03:26:37;8.60;99.90
12025;DHT22;6073;53.230;10.444;2024-02-21T03:29:03;8.60;99.90
12025;DHT22;6073;53.230;10.444;2024-02-21T03:31:29;8.70;99.90
12025;DHT22;6073;53.230;10.444;2024-02-21T03:33:55;8.60;99.90
12025;DHT22;6073;53.230;10.444;2024-02-21T03:36:20;8.60;99.90
12025;DHT22;6073;53.230;10.444;2024-02-21T03:38:46;8.70;99.90
12025;DHT22;6073;53.230;10.444;2024-02-21T03:41:11;8.70;99.90
12025;DHT22;6073;53.230;10.444;2024-02-21T03:43:38;8.70;99.90
12025;DHT22;6073;53.230;10.444;2024-02-21T03:46:04;8.70;99.90
12025;DHT22;6073;53.230;10.444;2024-02-21T03:48:30;8.70;99.90
12025;DHT22;6073;53.230;10.444;2024-02-21T03:50:55;8.70;99.90
12025;DHT22;6073;53.230;10.444;2024-02-21T03:53:21;8.80;99.90
12025;DHT22;6073;53.230;10.444;2024-02-21T03:55:46;8.80;99.90
12025;DHT22;6073;53.230;10.444;2024-02-21T03:58:12;8.90;99.90
12025;DHT22;6073;53.230;10.444;2024-02-21T04:00:37;8.80;99.90
12025;DHT22;6073;53.230;10.444;2024-02-21T04:03:04;8.80;99.90
12025;DHT22;6073;53.230;10.444;2024-02-21T04:05:30;8.80;99.90
12025;DHT22;6073;53.230;10.444;2024-02-21T04:07:55;8.90;99.90
12025;DHT22;6073;53.230;10.444;2024-02-21T04:10:21;8.80;99.90
12025;DHT22;6073;53.230;10.444;2024-02-21T04:12:46;8.90;99.90
12025;DHT22;6073;53.230;10.444;2024-02-21T04:15:12;8.90;99.90
12025;DHT22;6073;53.230;10.444;2024-02-21T04:17:38;8.90;99.90
12025;DHT22;6073;53.230;10.444;2024-02-21T04:20:05;8.80;99.90
12025;DHT22;6073;53.230;10.444;2024-02-21T04:22:31;8.90;99.90
12025;DHT22;6073;53.230;10.444;2024-02-21T04:24:59;8.90;99.90
12025;DHT22;6073;53.230;10.444;2024-02-21T04:27:25;8.90;99.90
12025;DHT22;6073;53.230;10.444;2024-02-21T04:29:51;8.90;99.90
12025;DHT22;6073;53.230;10.444;2024-02-21T04:32:16;8.90;99.90
12025;DHT22;6073;53.230;10.444;2024-02-21T04:34:42;8.90;99.90
12025;DHT22;6073;53.230;10.444;2024-02-21T04:37:07;8.90;99.90
12025;DHT22;6073;53.230;10.444;2024-02-21T04:39:33;8.90;99.90
12025;DHT22;6073;53.230;10.444;2024-02-21T04:41:58;8.90;99.90
12025;DHT22;6073;53.230;10.444;2024-02-21T04:44:24;8.80;99.90
12025;DHT22;6073;53.230;10.444;2024-02-21T04:46:49;8.80;99.90
12025;DHT22;6073;53.230;10.444;2024-02-21T04:49:15;8.90;99.90
12025;DHT22;6073;53.230;10.444;2024-02-21T04:51:43;8.90;99.90
12025;DHT22;6073;53.230;10.444;2024-02-21T04:54:09;8.90;99.90
12025;DHT22;6073;53.230;10.444;2024-02-21T04:56:34;8.80;99.90
12025;DHT22;6073;53.230;10.444;2024-02-21T04:59:00;8.80;99.90
12025;DHT22;6073;53.230;10.444;2024-02-21T05:01:26;8.90;99.90
12025;DHT22;6073;53.230;10.444;2024-02-21T05:03:51;8.80;99.90
12025;DHT22;6073;53.230;10.444;2024-02-21T05:06:17;8.80;99.90
12025;DHT22;6073;53.230;10.444;2024-02-21T05:08:42;8.80;99.90
12025;DHT22;6073;53.230;10.444;2024-02-21T05:11:08;8.70;99.90
12025;DHT22;6073;53.230;10.444;2024-02-21T05:13:33;8.70;99.90
12025;DHT22;6073;53.230;10.444;2024-02-21T05:15:59;8.70;99.90
12025;DHT22;6073;53.230;10.444;2024-02-21T05:18:27;8.70;99.90
12025;DHT22;6073;53.230;10.444;2024-02-21T05:20:53;8.60;99.90
12025;DHT22;6073;53.230;10.444;2024-02-21T05:23:18;8.60;99.90
12025;DHT22;6073;53.230;10.444;2024-02-21T05:25:44;8.70;99.90
12025;DHT22;6073;53.230;10.444;2024-02-21T05:28:09;8.60;99.90
12025;DHT22;6073;53.230;10.444;2024-02-21T05:30:35;8.70;99.90
12025;DHT22;6073;53.230;10.444;2024-02-21T05:33:07;8.70;99.90
12025;DHT22;6073;53.230;10.444;2024-02-21T05:35:34;8.60;99.90
12025;DHT22;6073;53.230;10.444;2024-02-21T05:37:59;8.60;99.90
12025;DHT22;6073;53.230;10.444;2024-02-21T05:40:25;8.60;99.90
12025;DHT22;6073;53.230;10.444;2024-02-21T05:42:51;8.60;99.90
12025;DHT22;6073;53.230;10.444;2024-02-21T05:45:17;8.50;99.90
12025;DHT22;6073;53.230;10.444;2024-02-21T05:47:43;8.50;99.90
12025;DHT22;6073;53.230;10.444;2024-02-21T05:50:09;8.50;99.90
12025;DHT22;6073;53.230;10.444;2024-02-21T05:52:35;8.50;99.90
12025;DHT22;6073;53.230;10.444;2024-02-21T05:55:01;8.60;99.90
12025;DHT22;6073;53.230;10.444;2024-02-21T05:57:26;8.60;99.90
12025;DHT22;6073;53.230;10.444;2024-02-21T05:59:52;8.50;99.90
12025;DHT22;6073;53.230;10.444;2024-02-21T06:02:18;8.60;99.90
12025;DHT22;6073;53.230;10.444;2024-02-21T06:04:43;8.50;99.90
12025;DHT22;6073;53.230;10.444;2024-02-21T06:07:09;8.50;99.90
12025;DHT22;6073;53.230;10.444;2024-02-21T06:09:35;8.50;99.90
12025;DHT22;6073;53.230;10.444;2024-02-21T06:12:01;8.50;99.90
12025;DHT22;6073;53.230;10.444;2024-02-21T06:14:26;8.50;99.90
12025;DHT22;6073;53.230;10.444;2024-02-21T06:16:52;8.50;99.90
12025;DHT22;6073;53.230;10.444;2024-02-21T06:19:17;8.50;99.90
12025;DHT22;6073;53.230;10.444;2024-02-21T06:21:43;8.50;99.90
12025;DHT22;6073;53.230;10.444;2024-02-21T06:24:09;8.50;99.90
12025;DHT22;6073;53.230;10.444;2024-02-21T06:26:34;8.50;99.90
12025;DHT22;6073;53.230;10.444;2024-02-21T06:29:00;8.50;99.90
12025;DHT22;6073;53.230;10.444;2024-02-21T06:31:27;8.50;99.90
12025;DHT22;6073;53.230;10.444;2024-02-21T06:33:53;8.50;99.90
12025;DHT22;6073;53.230;10.444;2024-02-21T06:36:18;8.60;99.90
12025;DHT22;6073;53.230;10.444;2024-02-21T06:38:44;8.50;99.90
12025;DHT22;6073;53.230;10.444;2024-02-21T06:41:19;8.50;99.90
12025;DHT22;6073;53.230;10.444;2024-02-21T06:43:45;8.50;99.90
12025;DHT22;6073;53.230;10.444;2024-02-21T06:46:11;8.60;99.90
12025;DHT22;6073;53.230;10.444;2024-02-21T06:48:37;8.60;99.90
12025;DHT22;6073;53.230;10.444;2024-02-21T06:51:03;8.60;99.90
12025;DHT22;6073;53.230;10.444;2024-02-21T06:53:29;8.50;99.90
12025;DHT22;6073;53.230;10.444;2024-02-21T06:55:54;8.50;99.90
12025;DHT22;6073;53.230;10.444;2024-02-21T06:58:20;8.50;99.90
12025;DHT22;6073;53.230;10.444;2024-02-21T07:00:46;8.50;99.90
12025;DHT22;6073;53.230;10.444;2024-02-21T07:03:11;8.50;99.90
12025;DHT22;6073;53.230;10.444;2024-02-21T07:05:37;8.40;99.90
12025;DHT22;6073;53.230;10.444;2024-02-21T07:08:02;8.50;99.90
12025;DHT22;6073;53.230;10.444;2024-02-21T07:10:28;8.50;99.90
12025;DHT22;6073;53.230;10.444;2024-02-21T07:12:54;8.50;99.90
12025;DHT22;6073;53.230;10.444;2024-02-21T07:15:20;8.50;99.90
12025;DHT22;6073;53.230;10.444;2024-02-21T07:17:46;8.50;99.90
12025;DHT22;6073;53.230;10.444;2024-02-21T07:20:11;8.50;99.90
12025;DHT22;6073;53.230;10.444;2024-02-21T07:22:37;8.50;99.90
12025;DHT22;6073;53.230;10.444;2024-02-21T07:25:03;8.50;99.90
12025;DHT22;6073;53.230;10.444;2024-02-21T07:27:29;8.50;99.90
12025;DHT22;6073;53.230;10.444;2024-02-21T07:29:57;8.50;99.90
12025;DHT22;6073;53.230;10.444;2024-02-21T07:32:22;8.60;99.90
12025;DHT22;6073;53.230;10.444;2024-02-21T07:34:48;8.60;99.90
12025;DHT22;6073;53.230;10.444;2024-02-21T07:37:13;8.50;99.90
12025;DHT22;6073;53.230;10.444;2024-02-21T07:39:39;8.60;99.90
12025;DHT22;6073;53.230;10.444;2024-02-21T07:42:04;8.60;99.90
12025;DHT22;6073;53.230;10.444;2024-02-21T07:44:31;8.60;99.90
12025;DHT22;6073;53.230;10.444;2024-02-21T07:46:58;8.60;99.90
12025;DHT22;6073;53.230;10.444;2024-02-21T07:49:24;8.70;99.90
12025;DHT22;6073;53.230;10.444;2024-02-21T07:51:50;8.70;99.90
12025;DHT22;6073;53.230;10.444;2024-02-21T07:54:15;8.70;99.90
12025;DHT22;6073;53.230;10.444;2024-02-21T07:56:41;8.80;99.90
12025;DHT22;6073;53.230;10.444;2024-02-21T07:59:06;8.80;99.90
12025;DHT22;6073;53.230;10.444;2024-02-21T08:01:33;8.90;99.90
12025;DHT22;6073;53.230;10.444;2024-02-21T08:03:58;8.90;99.90
12025;DHT22;6073;53.230;10.444;2024-02-21T08:06:24;8.90;99.90
12025;DHT22;6073;53.230;10.444;2024-02-21T08:08:50;8.90;99.90
12025;DHT22;6073;53.230;10.444;2024-02-21T08:11:15;9.00;99.90
12025;DHT22;6073;53.230;10.444;2024-02-21T08:13:41;9.00;99.90
12025;DHT22;6073;53.230;10.444;2024-02-21T08:16:07;9.00;99.90
12025;DHT22;6073;53.230;10.444;2024-02-21T08:18:32;9.00;99.90
12025;DHT22;6073;53.230;10.444;2024-02-21T08:21:03;9.10;99.90
12025;DHT22;6073;53.230;10.444;2024-02-21T08:23:28;9.10;99.90
12025;DHT22;6073;53.230;10.444;2024-02-21T08:25:54;9.20;99.90
12025;DHT22;6073;53.230;10.444;2024-02-21T08:28:19;9.20;99.90
12025;DHT22;6073;53.230;10.444;2024-02-21T08:30:45;9.30;99.90
12025;DHT22;6073;53.230;10.444;2024-02-21T08:33:14;9.30;99.90
12025;DHT22;6073;53.230;10.444;2024-02-21T08:35:40;9.40;99.90
12025;DHT22;6073;53.230;10.444;2024-02-21T08:38:06;9.40;99.90
12025;DHT22;6073;53.230;10.444;2024-02-21T08:40:31;9.40;99.90
12025;DHT22;6073;53.230;10.444;2024-02-21T08:42:57;9.40;99.90
12025;DHT22;6073;53.230;10.444;2024-02-21T08:45:22;9.40;99.90
12025;DHT22;6073;53.230;10.444;2024-02-21T08:47:48;9.40;99.90
12025;DHT22;6073;53.230;10.444;2024-02-21T08:50:13;9.40;99.90
12025;DHT22;6073;53.230;10.444;2024-02-21T08:52:39;9.40;99.90
12025;DHT22;6073;53.230;10.444;2024-02-21T08:55:05;9.50;99.90
12025;DHT22;6073;53.230;10.444;2024-02-21T08:57:31;9.60;99.90
12025;DHT22;6073;53.230;10.444;2024-02-21T09:00:05;9.70;99.90
12025;DHT22;6073;53.230;10.444;2024-02-21T09:02:41;9.80;99.90
12025;DHT22;6073;53.230;10.444;2024-02-21T09:05:10;9.80;99.90
12025;DHT22;6073;53.230;10.444;2024-02-21T09:07:36;9.80;99.90
12025;DHT22;6073;53.230;10.444;2024-02-21T09:10:01;9.70;99.90
12025;DHT22;6073;53.230;10.444;2024-02-21T09:12:28;9.70;99.90
12025;DHT22;6073;53.230;10.444;2024-02-21T09:14:53;9.70;99.90
12025;DHT22;6073;53.230;10.444;2024-02-21T09:17:19;9.80;99.90
12025;DHT22;6073;53.230;10.444;2024-02-21T09:19:46;9.80;99.90
12025;DHT22;6073;53.230;10.444;2024-02-21T09:22:12;9.80;99.90
12025;DHT22;6073;53.230;10.444;2024-02-21T09:24:38;9.80;99.90
12025;DHT22;6073;53.230;10.444;2024-02-21T09:27:03;9.90;99.90
12025;DHT22;6073;53.230;10.444;2024-02-21T09:29:29;10.00;99.90
12025;DHT22;6073;53.230;10.444;2024-02-21T09:31:55;10.00;99.90
12025;DHT22;6073;53.230;10.444;2024-02-21T09:34:20;10.10;99.90
12025;DHT22;6073;53.230;10.444;2024-02-21T09:36:46;9.90;99.90
12025;DHT22;6073;53.230;10.444;2024-02-21T09:39:12;9.80;99.90
12025;DHT22;6073;53.230;10.444;2024-02-21T09:41:45;9.80;99.90
12025;DHT22;6073;53.230;10.444;2024-02-21T09:44:13;9.80;99.90
12025;DHT22;6073;53.230;10.444;2024-02-21T09:46:52;9.70;99.90
12025;DHT22;6073;53.230;10.444;2024-02-21T09:49:35;9.60;99.90
12025;DHT22;6073;53.230;10.444;2024-02-21T09:52:07;9.50;99.90
12025;DHT22;6073;53.230;10.444;2024-02-21T09:54:33;9.50;99.90
12025;DHT22;6073;53.230;10.444;2024-02-21T09:57:00;9.40;99.90
12025;DHT22;6073;53.230;10.444;2024-02-21T09:59:28;9.40;99.90
12025;DHT22;6073;53.230;10.444;2024-02-21T10:01:54;9.40;99.90
12025;DHT22;6073;53.230;10.444;2024-02-21T10:04:20;9.40;99.90
12025;DHT22;6073;53.230;10.444;2024-02-21T10:06:46;9.40;99.90
12025;DHT22;6073;53.230;10.444;2024-02-21T10:09:25;9.40;99.90
12025;DHT22;6073;53.230;10.444;2024-02-21T10:11:53;9.40;99.90
12025;DHT22;6073;53.230;10.444;2024-02-21T10:14:19;9.40;99.90
12025;DHT22;6073;53.230;10.444;2024-02-21T10:16:56;9.40;99.90
12025;DHT22;6073;53.230;10.444;2024-02-21T10:19:23;9.30;99.90
12025;DHT22;6073;53.230;10.444;2024-02-21T10:22:06;9.30;99.90
12025;DHT22;6073;53.230;10.444;2024-02-21T10:24:33;9.30;99.90
12025;DHT22;6073;53.230;10.444;2024-02-21T10:27:06;9.40;99.90
12025;DHT22;6073;53.230;10.444;2024-02-21T10:29:36;9.40;99.90
12025;DHT22;6073;53.230;10.444;2024-02-21T10:32:09;9.50;99.90
12025;DHT22;6073;53.230;10.444;2024-02-21T10:34:36;9.50;99.90
12025;DHT22;6073;53.230;10.444;2024-02-21T10:37:02;9.70;99.90
12025;DHT22;6073;53.230;10.444;2024-02-21T10:39:29;9.80;99.90
12025;DHT22;6073;53.230;10.444;2024-02-21T10:41:59;9.90;99.90
12025;DHT22;6073;53.230;10.444;2024-02-21T10:44:28;9.90;99.90
12025;DHT22;6073;53.230;10.444;2024-02-21T10:46:55;9.90;99.90
12025;DHT22;6073;53.230;10.444;2024-02-21T10:49:23;10.00;99.90
12025;DHT22;6073;53.230;10.444;2024-02-21T10:52:14;10.10;99.90
12025;DHT22;6073;53.230;10.444;2024-02-21T10:54:45;10.00;99.90
12025;DHT22;6073;53.230;10.444;2024-02-21T10:57:13;10.00;99.90
12025;DHT22;6073;53.230;10.444;2024-02-21T10:59:40;10.00;99.90
12025;DHT22;6073;53.230;10.444;2024-02-21T11:02:06;10.00;99.90
12025;DHT22;6073;53.230;10.444;2024-02-21T11:04:34;10.00;99.90
12025;DHT22;6073;53.230;10.444;2024-02-21T11:07:05;10.00;99.90
12025;DHT22;6073;53.230;10.444;2024-02-21T11:09:31;10.00;99.90
12025;DHT22;6073;53.230;10.444;2024-02-21T11:12:03;10.00;99.90
12025;DHT22;6073;53.230;10.444;2024-02-21T11:14:29;10.00;99.90
12025;DHT22;6073;53.230;10.444;2024-02-21T11:16:58;9.90;99.90
12025;DHT22;6073;53.230;10.444;2024-02-21T11:19:27;9.90;99.90
12025;DHT22;6073;53.230;10.444;2024-02-21T11:21:55;9.90;99.90
12025;DHT22;6073;53.230;10.444;2024-02-21T11:24:31;9.90;99.90
12025;DHT22;6073;53.230;10.444;2024-02-21T11:27:19;10.00;99.90
12025;DHT22;6073;53.230;10.444;2024-02-21T11:29:56;9.80;99.90
12025;DHT22;6073;53.230;10.444;2024-02-21T11:32:22;9.70;99.90
12025;DHT22;6073;53.230;10.444;2024-02-21T11:34:55;9.80;99.90
12025;DHT22;6073;53.230;10.444;2024-02-21T11:37:21;9.70;99.90
12025;DHT22;6073;53.230;10.444;2024-02-21T11:39:49;9.70;99.90
12025;DHT22;6073;53.230;10.444;2024-02-21T11:42:15;9.60;99.90
12025;DHT22;6073;53.230;10.444;2024-02-21T11:44:40;9.60;99.90
12025;DHT22;6073;53.230;10.444;2024-02-21T11:47:08;9.50;99.90
12025;DHT22;6073;53.230;10.444;2024-02-21T11:49:45;9.50;99.90
12025;DHT22;6073;53.230;10.444;2024-02-21T11:52:11;9.50;99.90
12025;DHT22;6073;53.230;10.444;2024-02-21T11:54:37;9.50;99.90
12025;DHT22;6073;53.230;10.444;2024-02-21T11:57:03;9.40;99.90
12025;DHT22;6073;53.230;10.444;2024-02-21T11:59:33;9.40;99.90
12025;DHT22;6073;53.230;10.444;2024-02-21T12:02:01;9.40;99.90
12025;DHT22;6073;53.230;10.444;2024-02-21T12:04:30;9.40;99.90
12025;DHT22;6073;53.230;10.444;2024-02-21T12:06:57;9.50;99.90
12025;DHT22;6073;53.230;10.444;2024-02-21T12:09:24;9.60;99.90
12025;DHT22;6073;53.230;10.444;2024-02-21T12:12:00;9.60;99.90
12025;DHT22;6073;53.230;10.444;2024-02-21T12:14:27;9.60;99.90
12025;DHT22;6073;53.230;10.444;2024-02-21T12:16:53;9.60;99.90
12025;DHT22;6073;53.230;10.444;2024-02-21T12:19:20;9.70;99.90
12025;DHT22;6073;53.230;10.444;2024-02-21T12:21:47;9.60;99.90
12025;DHT22;6073;53.230;10.444;2024-02-21T12:26:42;9.60;99.90
12025;DHT22;6073;53.230;10.444;2024-02-21T12:29:08;9.60;99.90
12025;DHT22;6073;53.230;10.444;2024-02-21T12:31:39;9.70;99.90
12025;DHT22;6073;53.230;10.444;2024-02-21T12:34:05;9.70;99.90
12025;DHT22;6073;53.230;10.444;2024-02-21T12:36:31;9.80;99.90
12025;DHT22;6073;53.230;10.444;2024-02-21T12:38:57;9.70;99.90
12025;DHT22;6073;53.230;10.444;2024-02-21T12:41:23;9.80;99.90
12025;DHT22;6073;53.230;10.444;2024-02-21T12:43:51;9.80;99.90
12025;DHT22;6073;53.230;10.444;2024-02-21T12:46:16;9.80;99.90
12025;DHT22;6073;53.230;10.444;2024-02-21T12:48:42;9.90;99.90
12025;DHT22;6073;53.230;10.444;2024-02-21T12:51:08;10.00;99.90
12025;DHT22;6073;53.230;10.444;2024-02-21T12:53:33;10.10;99.90
12025;DHT22;6073;53.230;10.444;2024-02-21T12:55:59;10.10;99.90
12025;DHT22;6073;53.230;10.444;2024-02-21T12:58:25;10.00;99.90
12025;DHT22;6073;53.230;10.444;2024-02-21T13:00:50;10.00;99.90
12025;DHT22;6073;53.230;10.444;2024-02-21T13:03:16;10.10;99.90
12025;DHT22;6073;53.230;10.444;2024-02-21T13:05:41;10.00;99.90
12025;DHT22;6073;53.230;10.444;2024-02-21T13:08:08;10.00;99.90
12025;DHT22;6073;53.230;10.444;2024-02-21T13:10:34;10.00;99.90
12025;DHT22;6073;53.230;10.444;2024-02-21T13:13:01;10.10;99.90
12025;DHT22;6073;53.230;10.444;2024-02-21T13:15:26;10.20;99.90
12025;DHT22;6073;53.230;10.444;2024-02-21T13:17:53;10.30;99.90
12025;DHT22;6073;53.230;10.444;2024-02-21T13:20:19;10.30;99.90
12025;DHT22;6073;53.230;10.444;2024-02-21T13:22:45;10.20;99.90
12025;DHT22;6073;53.230;10.444;2024-02-21T13:25:10;10.20;99.90
12025;DHT22;6073;53.230;10.444;2024-02-21T13:27:40;10.10;99.90
12025;DHT22;6073;53.230;10.444;2024-02-21T13:30:06;10.10;99.90
12025;DHT22;6073;53.230;10.444;2024-02-21T13:32:34;10.30;99.90
12025;DHT22;6073;53.230;10.444;2024-02-21T13:34:59;10.30;99.90
12025;DHT22;6073;53.230;10.444;2024-02-21T13:37:27;10.30;99.90
12025;DHT22;6073;53.230;10.444;2024-02-21T13:39:53;10.50;99.90
12025;DHT22;6073;53.230;10.444;2024-02-21T13:42:19;10.40;99.90
12025;DHT22;6073;53.230;10.444;2024-02-21T13:44:45;10.40;99.90
12025;DHT22;6073;53.230;10.444;2024-02-21T13:47:14;10.40;99.90
12025;DHT22;6073;53.230;10.444;2024-02-21T13:49:40;10.40;99.90
12025;DHT22;6073;53.230;10.444;2024-02-21T13:52:06;10.50;99.90
12025;DHT22;6073;53.230;10.444;2024-02-21T13:54:32;10.40;99.90
12025;DHT22;6073;53.230;10.444;2024-02-21T13:56:57;10.40;99.90
12025;DHT22;6073;53.230;10.444;2024-02-21T13:59:23;10.40;99.90
12025;DHT22;6073;53.230;10.444;2024-02-21T14:01:48;10.40;99.90
12025;DHT22;6073;53.230;10.444;2024-02-21T14:04:14;10.40;99.90
12025;DHT22;6073;53.230;10.444;2024-02-21T14:06:39;10.50;99.90
12025;DHT22;6073;53.230;10.444;2024-02-21T14:09:12;10.60;99.90
12025;DHT22;6073;53.230;10.444;2024-02-21T14:11:37;10.60;99.90
12025;DHT22;6073;53.230;10.444;2024-02-21T14:14:04;10.60;99.90
12025;DHT22;6073;53.230;10.444;2024-02-21T14:16:30;10.60;99.90
12025;DHT22;6073;53.230;10.444;2024-02-21T14:18:55;10.50;99.90
12025;DHT22;6073;53.230;10.444;2024-02-21T14:21:21;10.60;99.90
12025;DHT22;6073;53.230;10.444;2024-02-21T14:23:47;10.50;99.90
12025;DHT22;6073;53.230;10.444;2024-02-21T14:26:13;10.60;99.90
12025;DHT22;6073;53.230;10.444;2024-02-21T14:28:39;10.60;99.90
12025;DHT22;6073;53.230;10.444;2024-02-21T14:31:05;10.70;99.90
12025;DHT22;6073;53.230;10.444;2024-02-21T14:33:34;10.60;99.90
12025;DHT22;6073;53.230;10.444;2024-02-21T14:36:00;10.60;99.90
12025;DHT22;6073;53.230;10.444;2024-02-21T14:38:26;10.60;99.90
12025;DHT22;6073;53.230;10.444;2024-02-21T14:40:52;10.60;99.90
12025;DHT22;6073;53.230;10.444;2024-02-21T14:43:18;10.60;99.90
12025;DHT22;6073;53.230;10.444;2024-02-21T14:45:47;10.50;99.90
12025;DHT22;6073;53.230;10.444;2024-02-21T14:48:13;10.50;99.90
12025;DHT22;6073;53.230;10.444;2024-02-21T14:50:42;10.40;99.90
12025;DHT22;6073;53.230;10.444;2024-02-21T14:53:08;10.60;99.90
12025;DHT22;6073;53.230;10.444;2024-02-21T14:55:39;10.50;99.90
12025;DHT22;6073;53.230;10.444;2024-02-21T14:58:10;10.50;99.90
12025;DHT22;6073;53.230;10.444;2024-02-21T15:00:44;10.50;99.90
12025;DHT22;6073;53.230;10.444;2024-02-21T15:03:10;10.50;99.90
12025;DHT22;6073;53.230;10.444;2024-02-21T15:05:36;10.40;99.90
12025;DHT22;6073;53.230;10.444;2024-02-21T15:08:03;10.30;99.90
12025;DHT22;6073;53.230;10.444;2024-02-21T15:10:29;10.30;99.90
12025;DHT22;6073;53.230;10.444;2024-02-21T15:12:54;10.20;99.90
12025;DHT22;6073;53.230;10.444;2024-02-21T15:15:20;10.20;99.90
12025;DHT22;6073;53.230;10.444;2024-02-21T15:17:45;10.20;99.90
12025;DHT22;6073;53.230;10.444;2024-02-21T15:20:11;10.20;99.90
12025;DHT22;6073;53.230;10.444;2024-02-21T15:22:37;10.20;99.90
12025;DHT22;6073;53.230;10.444;2024-02-21T15:25:03;10.10;99.90
12025;DHT22;6073;53.230;10.444;2024-02-21T15:27:33;10.10;99.90
12025;DHT22;6073;53.230;10.444;2024-02-21T15:29:59;10.00;99.90
12025;DHT22;6073;53.230;10.444;2024-02-21T15:32:26;10.00;99.90
12025;DHT22;6073;53.230;10.444;2024-02-21T15:34:53;10.00;99.90
12025;DHT22;6073;53.230;10.444;2024-02-21T15:37:18;9.90;99.90
12025;DHT22;6073;53.230;10.444;2024-02-21T15:39:47;9.90;99.90
12025;DHT22;6073;53.230;10.444;2024-02-21T15:42:13;9.90;99.90